Bathpalathang Airport


Codes: VQBT/BUT
Name: Bathpalathang Airport
City: Jakar
Country: Bhutan
Elevation: 8485 ft.

Photos at Bathpalathang Airport


   Photos courtesy of SpottingLog. You can add your own sightings and photos by signing up for a free trial today.



No photos found.

Weather at Bathpalathang Airport


Time (UTC)DescriptionTempratureWindCloud coverageVisibilityPressureHumidity
21-Feb-2024 03:00Few Clouds7°C4 mph, SW21%10000m1014hPa61%
21-Feb-2024 06:00Light Rain7°C9 mph, S28%2513m1013hPa61%
21-Feb-2024 09:00Light Rain6°C7 mph, S74%301m1012hPa81%
21-Feb-2024 12:00Snow4°C4 mph, S100%80m1012hPa98%
21-Feb-2024 15:00Snow4°C4 mph, S100%100m1015hPa98%
21-Feb-2024 18:00Snow3°C2 mph, SW100%164m1016hPa98%
21-Feb-2024 21:00Light Snow1°C2 mph, NW99%1516m1016hPa96%
22-Feb-2024 00:00Light Snow-1°C2 mph, N97%8775m1019hPa96%
22-Feb-2024 03:00Light Snow4°C2 mph, S99%4057m1017hPa85%
22-Feb-2024 06:00Light Rain6°C7 mph, S99%68m1014hPa96%
22-Feb-2024 09:00Moderate Rain5°C4 mph, S100%38m1012hPa99%
22-Feb-2024 12:00Snow4°C4 mph, SW100%38m1014hPa99%
22-Feb-2024 15:00Snow4°C4 mph, SW100%61m1017hPa99%
22-Feb-2024 18:00Light Snow2°C0 mph, NW100%109m1017hPa99%
22-Feb-2024 21:00Snow2°C4 mph, N100%591m1015hPa98%
23-Feb-2024 00:00Snow2°C2 mph, W100%100m1016hPa98%
23-Feb-2024 03:00Snow5°C4 mph, SW100%4199m1017hPa98%
23-Feb-2024 06:00Light Rain6°C7 mph, S89%6958m1015hPa94%
23-Feb-2024 09:00Light Rain6°C7 mph, S38%10000m1013hPa87%
23-Feb-2024 12:00Light Snow-0°C2 mph, S52%2645m1018hPa99%
23-Feb-2024 15:00Light Snow0°C0 mph, SE88%254m1021hPa98%
23-Feb-2024 18:00Light Snow-0°C2 mph, NW94%873m1021hPa98%
23-Feb-2024 21:00Light Snow-2°C4 mph, N98%9308m1022hPa94%
24-Feb-2024 00:00Broken Clouds-7°C7 mph, N71%10000m1031hPa90%
24-Feb-2024 03:00Clear Sky3°C2 mph, NW5%10000m1022hPa75%
24-Feb-2024 06:00Clear Sky6°C4 mph, SW3%10000m1020hPa72%
24-Feb-2024 09:00Light Rain6°C7 mph, S46%10000m1017hPa78%
24-Feb-2024 12:00Light Snow-0°C2 mph, S59%10000m1022hPa98%
24-Feb-2024 15:00Light Snow-1°C4 mph, N63%9479m1026hPa96%
24-Feb-2024 18:00Broken Clouds-1°C4 mph, N78%10000m1026hPa94%
24-Feb-2024 21:00Scattered Clouds-6°C7 mph, N48%10000m1030hPa92%
25-Feb-2024 00:00Scattered Clouds-6°C4 mph, N34%10000m1031hPa90%
25-Feb-2024 03:00Few Clouds4°C2 mph, S24%10000m1022hPa71%
25-Feb-2024 06:00Scattered Clouds7°C4 mph, S36%10000m1019hPa73%
25-Feb-2024 09:00Light Rain7°C7 mph, SW92%8939m1017hPa82%
25-Feb-2024 12:00Light Snow2°C2 mph, SW90%10000m1020hPa97%
25-Feb-2024 15:00Light Snow0°C2 mph, N83%10000m1025hPa97%
25-Feb-2024 18:00Overcast Clouds1°C2 mph, N89%10000m1024hPa93%
25-Feb-2024 21:00Broken Clouds-1°C4 mph, N76%10000m1024hPa92%
26-Feb-2024 00:00Broken Clouds-3°C4 mph, N51%10000m1027hPa90%